createdAt,value
2018-05-02T00:01:34.347Z,8.60
2018-05-02T00:04:01.881Z,8.60
2018-05-02T00:06:30.156Z,8.60
2018-05-02T00:08:57.688Z,8.60
2018-05-02T00:11:25.214Z,8.60
2018-05-02T00:13:52.768Z,8.60
2018-05-02T00:16:20.305Z,8.70
2018-05-02T00:18:47.856Z,8.70
2018-05-02T00:21:16.330Z,8.70
2018-05-02T00:23:43.850Z,8.70
2018-05-02T00:26:11.398Z,8.70
2018-05-02T00:28:38.963Z,8.70
2018-05-02T00:31:07.454Z,8.70
2018-05-02T00:33:36.005Z,8.70
2018-05-02T00:36:03.547Z,8.70
2018-05-02T00:38:31.090Z,8.70
2018-05-02T00:40:58.665Z,8.70
2018-05-02T00:43:26.185Z,8.60
2018-05-02T00:45:53.736Z,8.50
2018-05-02T00:48:21.249Z,8.50
2018-05-02T00:50:49.732Z,8.60
2018-05-02T00:53:17.285Z,8.40
2018-05-02T00:55:44.797Z,8.50
2018-05-02T00:58:12.344Z,8.40
2018-05-02T01:00:39.864Z,8.40
2018-05-02T01:03:07.436Z,8.50
2018-05-02T01:05:34.964Z,8.50
2018-05-02T01:08:02.508Z,8.50
2018-05-02T01:10:30.965Z,8.50
2018-05-02T01:12:59.428Z,8.50
2018-05-02T01:15:26.981Z,8.70
2018-05-02T01:17:54.515Z,8.70
2018-05-02T01:20:23.028Z,8.80
2018-05-02T01:22:50.590Z,8.80
2018-05-02T01:25:19.312Z,8.60
2018-05-02T01:27:47.612Z,8.80
2018-05-02T01:30:15.137Z,8.70
2018-05-02T01:32:42.677Z,8.80
2018-05-02T01:35:10.201Z,8.90
2018-05-02T01:37:37.745Z,9.00
2018-05-02T01:40:05.273Z,9.00
2018-05-02T01:42:33.559Z,8.90
2018-05-02T01:45:01.099Z,8.90
2018-05-02T01:47:28.624Z,8.90
2018-05-02T01:49:56.168Z,8.90
2018-05-02T01:52:23.686Z,8.80
2018-05-02T01:54:51.212Z,8.80
2018-05-02T01:57:18.753Z,8.70
2018-05-02T01:59:46.272Z,8.70
2018-05-02T02:02:14.572Z,8.60
2018-05-02T02:04:42.087Z,8.60
2018-05-02T02:07:10.398Z,8.40
2018-05-02T02:26:57.339Z,8.00
2018-05-02T02:29:24.899Z,7.90
2018-05-02T02:31:52.424Z,7.80
2018-05-02T02:34:20.726Z,7.90
2018-05-02T02:36:48.282Z,7.90
2018-05-02T02:39:15.816Z,7.80
2018-05-02T02:41:43.376Z,7.80
2018-05-02T02:44:10.894Z,7.80
2018-05-02T02:46:38.461Z,7.80
2018-05-02T02:49:05.981Z,7.90
2018-05-02T02:51:34.553Z,7.90
2018-05-02T02:54:02.076Z,7.90
2018-05-02T02:56:30.363Z,7.90
2018-05-02T02:58:58.697Z,7.90
2018-05-02T03:01:26.227Z,7.80
2018-05-02T03:03:55.738Z,7.90
2018-05-02T03:06:24.217Z,8.00
2018-05-02T03:08:51.793Z,8.00
2018-05-02T03:11:19.318Z,8.00
2018-05-02T03:13:46.844Z,7.90
2018-05-02T03:16:14.399Z,7.70
2018-05-02T03:18:41.916Z,7.70
2018-05-02T03:21:09.462Z,7.80
2018-05-02T03:23:36.976Z,7.90
2018-05-02T03:26:06.246Z,7.90
2018-05-02T03:28:33.761Z,7.90
2018-05-02T03:31:01.316Z,7.70
2018-05-02T03:33:29.613Z,7.80
2018-05-02T03:35:58.095Z,7.80
2018-05-02T03:38:25.647Z,7.90
2018-05-02T03:40:53.167Z,7.80
2018-05-02T03:43:20.717Z,8.00
2018-05-02T03:45:48.239Z,8.20
2018-05-02T03:48:15.780Z,8.20
2018-05-02T03:50:43.308Z,8.20
2018-05-02T03:53:10.863Z,8.10
2018-05-02T03:55:38.384Z,8.20
2018-05-02T03:58:05.937Z,8.30
2018-05-02T04:00:45.317Z,8.30
2018-05-02T04:03:24.818Z,8.40
2018-05-02T04:06:05.109Z,8.40
2018-05-02T04:08:32.660Z,8.50
2018-05-02T04:11:00.205Z,8.70
2018-05-02T04:13:28.717Z,8.70
2018-05-02T04:15:56.237Z,8.70
2018-05-02T04:18:23.777Z,8.80
2018-05-02T04:20:51.325Z,8.90
2018-05-02T04:23:18.846Z,8.90
2018-05-02T04:25:46.399Z,8.90
2018-05-02T04:28:13.929Z,8.90
2018-05-02T04:30:41.483Z,8.80
2018-05-02T04:33:09.041Z,8.90
2018-05-02T04:35:36.630Z,8.70
2018-05-02T04:38:04.157Z,8.90
2018-05-02T04:40:31.710Z,9.00
2018-05-02T04:42:59.229Z,9.00
2018-05-02T04:45:27.745Z,8.80
2018-05-02T04:47:55.267Z,8.80
2018-05-02T04:50:22.793Z,8.90
2018-05-02T04:52:52.369Z,9.00
2018-05-02T04:55:20.906Z,9.10
2018-05-02T04:57:50.433Z,9.10
2018-05-02T05:00:18.713Z,9.30
2018-05-02T05:02:48.217Z,9.20
2018-05-02T05:05:15.745Z,9.10
2018-05-02T05:07:44.072Z,9.30
2018-05-02T05:10:11.601Z,9.30
2018-05-02T05:12:40.112Z,9.30
2018-05-02T05:15:07.683Z,9.20
2018-05-02T05:17:35.231Z,9.40
2018-05-02T05:20:03.111Z,9.40
2018-05-02T05:22:30.628Z,9.40
2018-05-02T05:24:58.186Z,9.60
2018-05-02T05:27:25.708Z,9.70
2018-05-02T05:29:53.273Z,9.80
2018-05-02T05:32:20.806Z,10.00
2018-05-02T05:34:48.418Z,10.10
2018-05-02T05:37:16.707Z,10.10
2018-05-02T05:39:44.258Z,10.10
2018-05-02T05:42:16.384Z,10.20
2018-05-02T05:44:51.743Z,9.90
2018-05-02T05:47:19.321Z,9.80
2018-05-02T05:49:47.814Z,9.90
2018-05-02T05:52:15.365Z,9.90
2018-05-02T05:54:43.649Z,9.70
2018-05-02T05:57:12.537Z,9.70
2018-05-02T05:59:41.255Z,9.60
2018-05-02T06:02:08.825Z,9.60
2018-05-02T06:04:36.337Z,9.50
2018-05-02T06:07:04.655Z,9.60
2018-05-02T06:09:32.213Z,9.60
2018-05-02T06:11:59.760Z,9.50
2018-05-02T06:14:27.289Z,9.60
2018-05-02T06:16:54.812Z,9.60
2018-05-02T06:19:22.372Z,9.60
2018-05-02T06:21:50.860Z,9.60
2018-05-02T06:24:18.422Z,9.70
2018-05-02T06:26:46.954Z,10.00
2018-05-02T06:29:14.523Z,10.00
2018-05-02T06:31:42.105Z,10.30
2018-05-02T06:34:09.613Z,10.60
2018-05-02T06:36:37.914Z,10.60
2018-05-02T06:39:05.445Z,10.60
2018-05-02T06:41:32.999Z,10.30
2018-05-02T06:44:01.313Z,10.20
2018-05-02T06:46:28.869Z,10.10
2018-05-02T06:48:56.402Z,10.00
2018-05-02T06:51:25.939Z,10.30
2018-05-02T06:53:53.475Z,10.40
2018-05-02T06:56:21.054Z,10.50
2018-05-02T06:58:48.588Z,10.80
2018-05-02T07:01:16.164Z,11.10
2018-05-02T07:03:43.712Z,11.20
2018-05-02T07:06:11.244Z,11.30
2018-05-02T07:08:39.580Z,11.00
2018-05-02T07:11:07.125Z,10.90
2018-05-02T07:13:34.725Z,10.90
2018-05-02T07:16:02.237Z,10.70
2018-05-02T07:18:29.799Z,10.60
2018-05-02T07:20:57.355Z,11.00
2018-05-02T07:23:24.913Z,11.10
2018-05-02T07:25:53.413Z,11.10
2018-05-02T07:28:20.943Z,11.00
2018-05-02T07:30:49.466Z,11.00
2018-05-02T07:33:17.761Z,11.20
2018-05-02T07:35:45.318Z,11.10
2018-05-02T07:38:13.618Z,11.20
2018-05-02T07:40:41.943Z,11.40
2018-05-02T07:43:09.466Z,11.40
2018-05-02T07:45:37.058Z,12.00
2018-05-02T07:48:04.591Z,12.40
2018-05-02T07:50:32.137Z,12.90
2018-05-02T07:52:59.809Z,12.60
2018-05-02T07:55:27.369Z,12.60
2018-05-02T07:57:54.912Z,13.00
2018-05-02T08:00:23.208Z,13.00
2018-05-02T08:02:50.765Z,13.00
2018-05-02T08:05:19.287Z,13.10
2018-05-02T08:07:54.124Z,13.20
2018-05-02T08:10:21.680Z,13.30
2018-05-02T08:12:49.269Z,13.20
2018-05-02T08:15:16.805Z,13.30
2018-05-02T08:17:44.365Z,12.90
2018-05-02T08:20:11.894Z,12.80
2018-05-02T08:22:39.421Z,12.80
2018-05-02T08:25:06.977Z,12.60
2018-05-02T08:27:34.515Z,12.50
2018-05-02T08:30:02.070Z,12.20
2018-05-02T08:32:29.600Z,12.30
2018-05-02T08:34:57.168Z,12.40
2018-05-02T08:37:24.702Z,12.60
2018-05-02T08:39:54.221Z,12.80
2018-05-02T08:42:21.762Z,12.90
2018-05-02T08:44:49.305Z,13.40
2018-05-02T08:47:16.912Z,13.50
2018-05-02T08:49:44.446Z,13.50
2018-05-02T08:52:12.049Z,13.30
2018-05-02T08:54:39.585Z,13.10
2018-05-02T08:57:07.145Z,13.00
2018-05-02T08:59:34.671Z,12.60
2018-05-02T09:02:02.246Z,12.20
2018-05-02T09:04:29.778Z,12.60
2018-05-02T09:06:57.312Z,12.90
2018-05-02T09:09:24.874Z,13.00
2018-05-02T09:11:53.186Z,13.30
2018-05-02T09:14:20.741Z,13.30
2018-05-02T09:16:49.236Z,13.10
2018-05-02T09:19:16.793Z,13.50
2018-05-02T09:21:44.333Z,13.30
2018-05-02T09:24:11.893Z,13.50
2018-05-02T09:26:40.373Z,13.90
2018-05-02T09:29:07.900Z,14.20
2018-05-02T09:31:35.457Z,14.40
2018-05-02T09:34:03.002Z,14.40
2018-05-02T09:36:30.594Z,14.70
2018-05-02T09:38:58.913Z,14.50
2018-05-02T09:41:26.485Z,14.50
2018-05-02T09:43:54.025Z,15.00
2018-05-02T09:46:21.580Z,14.80
2018-05-02T09:48:49.105Z,14.50
2018-05-02T09:51:17.423Z,15.10
2018-05-02T09:53:44.958Z,15.10
2018-05-02T09:56:13.483Z,14.80
2018-05-02T09:58:41.022Z,15.30
2018-05-02T10:01:08.555Z,15.90
2018-05-02T10:03:36.120Z,16.10
2018-05-02T10:06:03.710Z,16.30
2018-05-02T10:08:31.267Z,16.30
2018-05-02T10:10:58.798Z,16.50
2018-05-02T10:13:28.329Z,16.00
2018-05-02T10:15:55.869Z,15.70
2018-05-02T10:18:23.444Z,15.60
2018-05-02T10:20:50.982Z,15.80
2018-05-02T10:23:18.543Z,15.90
2018-05-02T10:25:46.101Z,15.90
2018-05-02T10:28:13.628Z,16.50
2018-05-02T10:30:41.212Z,16.80
2018-05-02T10:33:08.725Z,16.80
2018-05-02T10:35:36.283Z,17.30
2018-05-02T10:38:04.221Z,17.10
2018-05-02T10:40:31.921Z,17.10
2018-05-02T10:43:00.424Z,17.20
2018-05-02T10:45:29.761Z,16.70
2018-05-02T10:47:57.285Z,16.70
2018-05-02T10:50:26.001Z,17.20
2018-05-02T10:52:53.557Z,17.60
2018-05-02T10:55:21.115Z,17.70
2018-05-02T10:57:48.698Z,17.80
2018-05-02T11:00:16.234Z,18.10
2018-05-02T11:02:45.760Z,18.10
2018-05-02T11:05:14.035Z,18.10
2018-05-02T11:07:43.545Z,17.90
2018-05-02T11:10:11.069Z,17.60
2018-05-02T11:12:38.630Z,17.20
2018-05-02T11:15:06.155Z,17.10
2018-05-02T11:17:33.725Z,17.50
2018-05-02T11:20:02.070Z,18.30
2018-05-02T11:22:29.635Z,18.30
2018-05-02T11:24:57.943Z,18.70
2018-05-02T11:27:25.497Z,18.70
2018-05-02T11:29:53.061Z,18.60
2018-05-02T11:32:20.601Z,18.10
2018-05-02T11:34:48.215Z,18.30
2018-05-02T11:37:16.693Z,18.70
2018-05-02T11:39:44.249Z,18.80
2018-05-02T11:42:11.770Z,19.00
2018-05-02T11:44:39.334Z,18.60
2018-05-02T11:47:06.861Z,18.80
2018-05-02T11:49:34.421Z,18.50
2018-05-02T11:52:02.898Z,18.50
2018-05-02T11:54:32.406Z,19.00
2018-05-02T11:56:59.937Z,18.90
2018-05-02T11:59:27.462Z,18.50
2018-05-02T12:01:55.037Z,19.00
2018-05-02T12:04:22.572Z,19.60
2018-05-02T12:06:50.701Z,18.90
2018-05-02T12:09:20.116Z,19.40
2018-05-02T12:11:47.673Z,19.30
2018-05-02T12:14:15.205Z,19.60
2018-05-02T12:16:42.778Z,20.00
2018-05-02T12:19:10.308Z,20.50
2018-05-02T12:21:38.861Z,19.80
2018-05-02T12:24:06.400Z,20.10
2018-05-02T12:26:34.976Z,20.70
2018-05-02T12:29:02.534Z,20.80
2018-05-02T12:31:30.065Z,20.80
2018-05-02T12:33:57.628Z,20.50
2018-05-02T12:36:26.161Z,20.50
2018-05-02T12:38:54.490Z,20.30
2018-05-02T12:41:22.067Z,20.30
2018-05-02T12:43:49.633Z,20.50
2018-05-02T12:46:17.163Z,20.50
2018-05-02T12:48:44.720Z,20.60
2018-05-02T12:51:12.273Z,20.50
2018-05-02T12:53:39.853Z,20.70
2018-05-02T12:56:07.391Z,20.60
2018-05-02T12:58:34.942Z,20.70
2018-05-02T13:01:02.490Z,20.70
2018-05-02T13:03:30.013Z,21.30
2018-05-02T13:05:58.488Z,21.60
2018-05-02T13:08:28.041Z,21.40
2018-05-02T13:10:55.610Z,21.40
2018-05-02T13:13:23.133Z,21.30
2018-05-02T13:15:51.474Z,20.60
2018-05-02T13:18:19.013Z,20.60
2018-05-02T13:20:48.552Z,20.70
2018-05-02T13:23:16.089Z,21.30
2018-05-02T13:25:43.644Z,21.50
2018-05-02T13:28:11.175Z,21.20
2018-05-02T13:30:38.729Z,21.60
2018-05-02T13:33:07.278Z,21.70
2018-05-02T13:35:34.826Z,21.90
2018-05-02T13:38:02.406Z,21.50
2018-05-02T13:40:29.943Z,21.60
2018-05-02T13:42:57.543Z,21.50
2018-05-02T13:45:25.082Z,21.80
2018-05-02T13:47:52.657Z,22.20
2018-05-02T13:50:20.941Z,22.50
2018-05-02T13:52:48.508Z,22.40
2018-05-02T13:55:16.041Z,22.30
2018-05-02T13:57:43.595Z,22.40
2018-05-02T14:00:11.163Z,21.80
2018-05-02T14:02:38.701Z,21.60
2018-05-02T14:05:07.026Z,21.40
2018-05-02T14:07:34.549Z,21.50
2018-05-02T14:10:02.107Z,22.00
2018-05-02T14:12:29.654Z,22.00
2018-05-02T14:14:57.202Z,21.80
2018-05-02T14:17:24.733Z,22.00
2018-05-02T14:19:52.276Z,22.10
2018-05-02T14:22:20.274Z,22.40
2018-05-02T14:24:47.833Z,22.30
2018-05-02T14:27:15.373Z,22.40
2018-05-02T14:29:42.913Z,21.80
2018-05-02T14:32:10.469Z,21.80
2018-05-02T14:34:38.228Z,21.90
2018-05-02T14:37:05.791Z,21.90
2018-05-02T14:39:33.328Z,21.90
2018-05-02T14:42:00.876Z,22.10
2018-05-02T14:44:28.402Z,21.90
2018-05-02T14:46:55.971Z,22.00
2018-05-02T14:49:23.489Z,21.10
2018-05-02T14:51:51.025Z,21.20
2018-05-02T14:54:18.658Z,20.20
2018-05-02T14:56:46.185Z,19.50
2018-05-02T14:59:13.731Z,19.80
2018-05-02T15:01:41.253Z,20.30
2018-05-02T15:04:08.812Z,20.10
2018-05-02T15:06:38.072Z,20.00
2018-05-02T15:09:05.652Z,20.00
2018-05-02T15:11:33.182Z,19.60
2018-05-02T15:14:00.732Z,19.20
2018-05-02T15:16:28.263Z,19.30
2018-05-02T15:18:55.809Z,19.40
2018-05-02T15:21:23.329Z,19.50
2018-05-02T15:23:50.858Z,19.40
2018-05-02T15:26:18.419Z,19.30
2018-05-02T15:28:45.948Z,19.20
2018-05-02T15:31:13.505Z,19.20
2018-05-02T15:33:41.056Z,19.00
2018-05-02T15:36:09.586Z,18.90
2018-05-02T15:38:37.108Z,18.80
2018-05-02T15:41:05.432Z,18.80
2018-05-02T15:43:32.969Z,18.80
2018-05-02T15:46:00.527Z,18.40
2018-05-02T15:48:28.061Z,18.60
2018-05-02T15:50:55.592Z,18.50
2018-05-02T15:53:25.109Z,18.30
2018-05-02T15:55:52.649Z,17.90
2018-05-02T15:58:20.274Z,17.90
2018-05-02T16:00:47.767Z,18.00
2018-05-02T16:03:15.321Z,17.80
2018-05-02T16:05:42.849Z,17.80
2018-05-02T16:08:10.518Z,17.70
2018-05-02T16:10:38.050Z,18.00
2018-05-02T16:13:05.589Z,17.30
2018-05-02T16:15:33.113Z,17.50
2018-05-02T16:18:00.665Z,17.10
2018-05-02T16:20:28.202Z,17.30
2018-05-02T16:22:55.721Z,17.40
2018-05-02T16:25:24.273Z,17.70
2018-05-02T16:27:51.808Z,17.90
2018-05-02T16:30:19.385Z,17.80
2018-05-02T16:32:46.909Z,17.30
2018-05-02T16:35:14.457Z,17.10
2018-05-02T16:37:42.744Z,17.10
2018-05-02T16:40:10.317Z,17.10
2018-05-02T16:42:37.845Z,16.60
2018-05-02T16:45:07.355Z,16.80
2018-05-02T16:47:35.841Z,16.80
2018-05-02T16:50:03.368Z,16.90
2018-05-02T16:52:30.921Z,16.60
2018-05-02T16:54:58.466Z,16.50
2018-05-02T16:57:26.013Z,16.20
2018-05-02T16:59:53.553Z,16.30
2018-05-02T17:02:21.107Z,16.20
2018-05-02T17:04:48.630Z,15.90
2018-05-02T17:07:17.201Z,16.00
2018-05-02T17:09:44.712Z,16.00
2018-05-02T17:12:12.291Z,16.10
2018-05-02T17:14:39.821Z,15.90
2018-05-02T17:17:07.353Z,15.80
2018-05-02T17:19:34.914Z,15.70
2018-05-02T17:22:02.521Z,15.70
2018-05-02T17:24:30.073Z,15.60
2018-05-02T17:26:57.601Z,15.80
2018-05-02T17:29:25.954Z,15.70
2018-05-02T17:31:54.448Z,15.70
2018-05-02T17:34:22.011Z,15.80
2018-05-02T17:36:49.533Z,15.70
2018-05-02T17:39:17.059Z,15.80
2018-05-02T17:41:46.543Z,15.80
2018-05-02T17:44:14.837Z,15.90
2018-05-02T17:46:42.404Z,15.90
2018-05-02T17:49:10.865Z,15.90
2018-05-02T17:51:39.182Z,15.80
2018-05-02T17:54:06.717Z,15.70
2018-05-02T17:56:35.225Z,15.70
2018-05-02T17:59:02.752Z,15.70
2018-05-02T18:01:30.289Z,15.60
2018-05-02T18:03:57.849Z,15.60
2018-05-02T18:06:26.146Z,15.50
2018-05-02T18:08:53.725Z,15.50
2018-05-02T18:11:21.261Z,15.40
2018-05-02T18:13:55.543Z,15.40
2018-05-02T18:16:23.069Z,15.30
2018-05-02T18:18:50.629Z,15.20
2018-05-02T18:21:18.157Z,15.20
2018-05-02T18:23:45.720Z,15.10
2018-05-02T18:26:13.256Z,15.00
2018-05-02T18:28:41.554Z,14.80
2018-05-02T18:31:11.069Z,14.70
2018-05-02T18:33:38.569Z,14.80
2018-05-02T18:36:06.128Z,14.70
2018-05-02T18:38:34.648Z,14.60
2018-05-02T18:41:03.924Z,14.40
2018-05-02T18:43:31.456Z,14.40
2018-05-02T18:45:59.027Z,14.40
2018-05-02T18:48:26.565Z,14.30
2018-05-02T18:50:56.021Z,14.20
2018-05-02T18:53:25.286Z,14.00
2018-05-02T18:55:53.849Z,14.00
2018-05-02T18:58:21.378Z,14.00
2018-05-02T19:00:48.901Z,13.90
2018-05-02T19:03:16.614Z,13.80
2018-05-02T19:05:44.136Z,13.80
2018-05-02T19:08:13.394Z,13.60
2018-05-02T19:10:41.880Z,13.60
2018-05-02T19:13:09.439Z,13.50
2018-05-02T19:15:36.970Z,13.40
2018-05-02T19:18:10.211Z,13.20
2018-05-02T19:20:39.484Z,13.20
2018-05-02T19:23:07.047Z,13.10
2018-05-02T19:25:41.220Z,13.10
2018-05-02T19:28:08.897Z,13.10
2018-05-02T19:30:36.424Z,12.80
2018-05-02T19:33:09.634Z,12.80
2018-05-02T19:35:37.229Z,12.80
2018-05-02T19:38:05.497Z,12.60
2018-05-02T19:40:38.600Z,12.60
2018-05-02T19:43:11.813Z,12.60
2018-05-02T19:45:39.452Z,12.60
2018-05-02T19:48:09.012Z,12.70
2018-05-02T19:50:36.529Z,12.70
2018-05-02T19:53:04.098Z,12.70
2018-05-02T19:55:31.634Z,12.60
2018-05-02T19:57:59.165Z,12.50
2018-05-02T20:00:32.465Z,12.60
2018-05-02T20:03:00.945Z,12.50
2018-05-02T20:05:28.661Z,12.50
2018-05-02T20:07:57.134Z,12.60
2018-05-02T20:10:30.233Z,12.70
2018-05-02T20:13:04.192Z,12.70
2018-05-02T20:15:31.749Z,12.80
2018-05-02T20:17:59.281Z,12.80
2018-05-02T20:20:26.845Z,12.80
2018-05-02T20:22:54.370Z,12.90
2018-05-02T20:25:22.002Z,12.70
2018-05-02T20:27:49.491Z,12.70
2018-05-02T20:30:17.814Z,12.50
2018-05-02T20:32:46.297Z,12.50
2018-05-02T20:35:13.853Z,12.40
2018-05-02T20:37:41.377Z,12.50
2018-05-02T20:40:09.674Z,12.60
2018-05-02T20:42:37.219Z,12.60
2018-05-02T20:45:05.681Z,12.60
2018-05-02T20:47:34.005Z,12.60
2018-05-02T20:50:04.367Z,12.60
2018-05-02T20:52:31.944Z,12.60
2018-05-02T20:55:00.318Z,12.60
2018-05-02T20:57:27.826Z,12.60
2018-05-02T20:59:55.455Z,12.70
2018-05-02T21:02:23.065Z,12.70
2018-05-02T21:04:50.589Z,12.70
2018-05-02T21:07:18.121Z,12.70
2018-05-02T21:09:45.671Z,12.80
2018-05-02T21:12:13.990Z,12.70
2018-05-02T21:14:41.551Z,12.80
2018-05-02T21:17:09.111Z,12.70
2018-05-02T21:19:36.750Z,12.70
2018-05-02T21:22:04.284Z,12.60
2018-05-02T21:24:31.835Z,12.60
2018-05-02T21:27:00.333Z,12.60
2018-05-02T21:29:27.892Z,12.30
2018-05-02T21:31:55.431Z,12.30
2018-05-02T21:34:22.997Z,12.40
2018-05-02T21:36:51.950Z,12.50
2018-05-02T21:39:19.550Z,12.60
2018-05-02T21:41:47.081Z,12.60
2018-05-02T21:44:14.611Z,12.60
2018-05-02T21:46:44.141Z,12.60
2018-05-02T21:49:11.662Z,12.60
2018-05-02T21:51:39.209Z,12.60
2018-05-02T21:54:07.500Z,12.50
2018-05-02T21:56:36.010Z,12.50
2018-05-02T21:59:04.579Z,12.50
2018-05-02T22:01:32.138Z,12.40
2018-05-02T22:03:59.665Z,12.50
2018-05-02T22:06:27.218Z,12.40
2018-05-02T22:08:54.756Z,12.30
2018-05-02T22:11:22.310Z,12.30
2018-05-02T22:13:49.835Z,12.30
2018-05-02T22:16:17.365Z,12.10
2018-05-02T22:18:45.680Z,12.00
2018-05-02T22:21:14.169Z,12.00
2018-05-02T22:23:41.715Z,12.00
2018-05-02T22:26:09.241Z,11.90
2018-05-02T22:28:37.561Z,12.00
2018-05-02T22:31:06.048Z,12.00
2018-05-02T22:33:33.593Z,12.00
2018-05-02T22:36:01.121Z,12.00
2018-05-02T22:38:29.429Z,11.90
2018-05-02T22:40:56.949Z,11.80
2018-05-02T22:43:24.509Z,11.70
2018-05-02T22:45:52.818Z,11.60
2018-05-02T22:48:20.350Z,11.60
2018-05-02T22:50:48.837Z,11.50
2018-05-02T22:53:16.385Z,11.40
2018-05-02T22:55:44.682Z,11.70
2018-05-02T22:58:12.205Z,11.70
2018-05-02T23:00:39.765Z,11.80
2018-05-02T23:03:08.079Z,11.90
2018-05-02T23:05:35.631Z,11.90
2018-05-02T23:08:03.162Z,11.90
2018-05-02T23:10:30.717Z,11.90
2018-05-02T23:12:59.012Z,11.90
2018-05-02T23:15:27.344Z,11.90
2018-05-02T23:17:54.869Z,11.90
2018-05-02T23:20:22.422Z,11.90
2018-05-02T23:22:49.954Z,11.80
2018-05-02T23:25:18.266Z,11.80
2018-05-02T23:27:45.817Z,11.80
2018-05-02T23:30:14.132Z,11.80
2018-05-02T23:32:43.639Z,11.70
2018-05-02T23:35:11.157Z,11.70
2018-05-02T23:37:38.705Z,11.70
2018-05-02T23:40:06.234Z,11.70
2018-05-02T23:42:33.793Z,11.70
2018-05-02T23:45:02.289Z,11.60
2018-05-02T23:47:31.528Z,11.60
2018-05-02T23:49:59.082Z,11.60
2018-05-02T23:52:26.608Z,11.60
2018-05-02T23:54:54.925Z,11.50
2018-05-02T23:57:22.467Z,11.50
2018-05-02T23:59:50.017Z,11.50
